sensor_id;sensor_type;location;lat;lon;timestamp;temperature;humidity
37910;DHT22;23741;49.446;8.754;2022-11-04T00:02:00;15.60;69.10
37910;DHT22;23741;49.446;8.754;2022-11-04T00:04:22;15.60;70.30
37910;DHT22;23741;49.446;8.754;2022-11-04T00:06:42;15.60;69.10
37910;DHT22;23741;49.446;8.754;2022-11-04T00:08:51;15.60;69.40
37910;DHT22;23741;49.446;8.754;2022-11-04T00:26:32;15.60;69.10
37910;DHT22;23741;49.446;8.754;2022-11-04T00:29:48;15.50;68.90
37910;DHT22;23741;49.446;8.754;2022-11-04T00:50:04;15.40;69.00
37910;DHT22;23741;49.446;8.754;2022-11-04T00:53:09;15.30;69.00
37910;DHT22;23741;49.446;8.754;2022-11-04T00:56:14;15.30;69.30
37910;DHT22;23741;49.446;8.754;2022-11-04T01:20:11;15.30;69.70
37910;DHT22;23741;49.446;8.754;2022-11-04T01:34:55;15.10;69.40
37910;DHT22;23741;49.446;8.754;2022-11-04T02:10:32;15.20;69.40
37910;DHT22;23741;49.446;8.754;2022-11-04T02:59:48;15.00;68.90
37910;DHT22;23741;49.446;8.754;2022-11-04T03:22:46;14.90;68.50
37910;DHT22;23741;49.446;8.754;2022-11-04T03:32:44;14.90;69.60
37910;DHT22;23741;49.446;8.754;2022-11-04T03:35:16;14.90;69.50
37910;DHT22;23741;49.446;8.754;2022-11-04T03:38:55;14.90;68.80
37910;DHT22;23741;49.446;8.754;2022-11-04T04:25:34;14.70;68.00
37910;DHT22;23741;49.446;8.754;2022-11-04T04:28:58;14.70;67.90
37910;DHT22;23741;49.446;8.754;2022-11-04T04:38:48;14.60;68.70
37910;DHT22;23741;49.446;8.754;2022-11-04T05:01:45;14.60;69.10
37910;DHT22;23741;49.446;8.754;2022-11-04T05:04:47;14.60;68.80
37910;DHT22;23741;49.446;8.754;2022-11-04T05:07:35;14.50;69.00
37910;DHT22;23741;49.446;8.754;2022-11-04T05:10:26;14.50;69.10
37910;DHT22;23741;49.446;8.754;2022-11-04T05:13:04;14.60;69.30
37910;DHT22;23741;49.446;8.754;2022-11-04T05:22:42;14.60;69.40
37910;DHT22;23741;49.446;8.754;2022-11-04T05:35:43;14.60;69.30
37910;DHT22;23741;49.446;8.754;2022-11-04T05:52:55;14.60;69.10
37910;DHT22;23741;49.446;8.754;2022-11-04T06:02:36;14.60;69.10
37910;DHT22;23741;49.446;8.754;2022-11-04T06:13:05;14.60;69.10
37910;DHT22;23741;49.446;8.754;2022-11-04T06:15:32;14.60;69.10
37910;DHT22;23741;49.446;8.754;2022-11-04T06:24:02;14.60;69.40
37910;DHT22;23741;49.446;8.754;2022-11-04T06:26:37;14.70;69.50
37910;DHT22;23741;49.446;8.754;2022-11-04T06:29:28;14.70;69.40
37910;DHT22;23741;49.446;8.754;2022-11-04T06:31:44;14.70;69.40
37910;DHT22;23741;49.446;8.754;2022-11-04T06:38:11;14.70;69.20
37910;DHT22;23741;49.446;8.754;2022-11-04T06:41:02;14.70;69.50
37910;DHT22;23741;49.446;8.754;2022-11-04T06:44:03;14.70;69.30
37910;DHT22;23741;49.446;8.754;2022-11-04T06:47:13;14.70;69.30
37910;DHT22;23741;49.446;8.754;2022-11-04T06:50:21;14.70;69.20
37910;DHT22;23741;49.446;8.754;2022-11-04T06:53:34;14.70;69.20
37910;DHT22;23741;49.446;8.754;2022-11-04T06:56:15;14.70;69.20
37910;DHT22;23741;49.446;8.754;2022-11-04T06:58:55;14.70;69.00
37910;DHT22;23741;49.446;8.754;2022-11-04T07:04:28;14.70;68.90
37910;DHT22;23741;49.446;8.754;2022-11-04T07:14:02;14.70;69.40
37910;DHT22;23741;49.446;8.754;2022-11-04T07:16:31;14.70;69.30
37910;DHT22;23741;49.446;8.754;2022-11-04T07:18:50;14.70;69.20
37910;DHT22;23741;49.446;8.754;2022-11-04T07:24:14;14.70;69.20
37910;DHT22;23741;49.446;8.754;2022-11-04T07:26:31;14.70;69.50
37910;DHT22;23741;49.446;8.754;2022-11-04T07:31:51;14.70;69.40
37910;DHT22;23741;49.446;8.754;2022-11-04T07:33:55;14.70;69.40
37910;DHT22;23741;49.446;8.754;2022-11-04T07:47:17;14.70;69.70
37910;DHT22;23741;49.446;8.754;2022-11-04T07:49:47;14.70;69.30
37910;DHT22;23741;49.446;8.754;2022-11-04T07:52:13;14.70;69.30
37910;DHT22;23741;49.446;8.754;2022-11-04T07:54:41;14.70;69.30
37910;DHT22;23741;49.446;8.754;2022-11-04T07:57:16;14.70;69.30
37910;DHT22;23741;49.446;8.754;2022-11-04T08:06:19;14.70;69.40
37910;DHT22;23741;49.446;8.754;2022-11-04T08:08:36;14.80;69.60
37910;DHT22;23741;49.446;8.754;2022-11-04T08:10:58;14.80;69.60
37910;DHT22;23741;49.446;8.754;2022-11-04T08:13:13;14.80;69.60
37910;DHT22;23741;49.446;8.754;2022-11-04T08:15:34;14.80;69.70
37910;DHT22;23741;49.446;8.754;2022-11-04T08:18:05;14.80;69.70
37910;DHT22;23741;49.446;8.754;2022-11-04T08:24:00;14.90;69.70
37910;DHT22;23741;49.446;8.754;2022-11-04T08:26:37;14.90;69.70
37910;DHT22;23741;49.446;8.754;2022-11-04T08:28:55;14.90;69.70
37910;DHT22;23741;49.446;8.754;2022-11-04T08:33:10;14.90;69.50
37910;DHT22;23741;49.446;8.754;2022-11-04T08:46:24;15.10;69.90
37910;DHT22;23741;49.446;8.754;2022-11-04T08:58:17;15.20;69.50
37910;DHT22;23741;49.446;8.754;2022-11-04T09:03:18;15.20;69.20
37910;DHT22;23741;49.446;8.754;2022-11-04T09:06:43;15.30;69.20
37910;DHT22;23741;49.446;8.754;2022-11-04T09:09:47;15.40;69.30
37910;DHT22;23741;49.446;8.754;2022-11-04T09:12:14;15.40;69.10
37910;DHT22;23741;49.446;8.754;2022-11-04T09:14:50;15.40;69.20
37910;DHT22;23741;49.446;8.754;2022-11-04T09:17:47;15.40;69.20
37910;DHT22;23741;49.446;8.754;2022-11-04T09:26:43;15.60;69.20
37910;DHT22;23741;49.446;8.754;2022-11-04T09:32:43;15.60;68.70
37910;DHT22;23741;49.446;8.754;2022-11-04T09:39:54;15.60;68.40
37910;DHT22;23741;49.446;8.754;2022-11-04T09:44:49;15.60;68.40
37910;DHT22;23741;49.446;8.754;2022-11-04T09:47:23;15.60;68.80
37910;DHT22;23741;49.446;8.754;2022-11-04T09:49:40;15.60;68.70
37910;DHT22;23741;49.446;8.754;2022-11-04T09:52:05;15.70;68.70
37910;DHT22;23741;49.446;8.754;2022-11-04T09:54:17;15.70;68.30
37910;DHT22;23741;49.446;8.754;2022-11-04T09:56:27;15.70;68.20
37910;DHT22;23741;49.446;8.754;2022-11-04T09:58:55;15.70;68.00
37910;DHT22;23741;49.446;8.754;2022-11-04T10:31:31;15.80;67.50
37910;DHT22;23741;49.446;8.754;2022-11-04T10:36:56;15.80;67.80
37910;DHT22;23741;49.446;8.754;2022-11-04T10:39:22;15.80;68.00
37910;DHT22;23741;49.446;8.754;2022-11-04T10:41:47;15.80;67.90
37910;DHT22;23741;49.446;8.754;2022-11-04T10:44:00;15.80;67.80
37910;DHT22;23741;49.446;8.754;2022-11-04T10:52:40;15.90;67.80
37910;DHT22;23741;49.446;8.754;2022-11-04T10:54:58;15.90;68.00
37910;DHT22;23741;49.446;8.754;2022-11-04T10:57:11;15.90;67.90
37910;DHT22;23741;49.446;8.754;2022-11-04T11:01:59;16.00;68.20
37910;DHT22;23741;49.446;8.754;2022-11-04T11:04:25;16.00;68.30
37910;DHT22;23741;49.446;8.754;2022-11-04T11:06:30;16.00;68.10
37910;DHT22;23741;49.446;8.754;2022-11-04T11:12:03;16.00;67.90
37910;DHT22;23741;49.446;8.754;2022-11-04T11:14:44;16.10;67.70
37910;DHT22;23741;49.446;8.754;2022-11-04T11:17:38;16.10;67.70
37910;DHT22;23741;49.446;8.754;2022-11-04T11:22:49;16.10;67.90
37910;DHT22;23741;49.446;8.754;2022-11-04T11:25:29;16.10;67.70
37910;DHT22;23741;49.446;8.754;2022-11-04T11:28:25;16.20;67.70
37910;DHT22;23741;49.446;8.754;2022-11-04T11:31:16;16.20;67.40
37910;DHT22;23741;49.446;8.754;2022-11-04T11:33:31;16.20;67.20
37910;DHT22;23741;49.446;8.754;2022-11-04T11:36:00;16.20;67.10
37910;DHT22;23741;49.446;8.754;2022-11-04T11:38:35;16.20;67.00
37910;DHT22;23741;49.446;8.754;2022-11-04T11:41:09;16.20;66.80
37910;DHT22;23741;49.446;8.754;2022-11-04T11:46:48;16.20;67.20
37910;DHT22;23741;49.446;8.754;2022-11-04T11:49:30;16.20;67.20
37910;DHT22;23741;49.446;8.754;2022-11-04T12:04:53;16.30;67.40
37910;DHT22;23741;49.446;8.754;2022-11-04T12:17:51;16.50;67.30
37910;DHT22;23741;49.446;8.754;2022-11-04T12:20:33;16.50;67.20
37910;DHT22;23741;49.446;8.754;2022-11-04T12:36:24;16.40;66.10
37910;DHT22;23741;49.446;8.754;2022-11-04T12:41:39;16.40;66.40
37910;DHT22;23741;49.446;8.754;2022-11-04T12:44:35;16.30;66.40
37910;DHT22;23741;49.446;8.754;2022-11-04T12:47:49;16.40;66.70
37910;DHT22;23741;49.446;8.754;2022-11-04T12:52:32;16.40;67.00
37910;DHT22;23741;49.446;8.754;2022-11-04T13:00:25;16.40;67.00
37910;DHT22;23741;49.446;8.754;2022-11-04T13:03:13;16.50;67.00
37910;DHT22;23741;49.446;8.754;2022-11-04T13:10:06;16.50;66.80
37910;DHT22;23741;49.446;8.754;2022-11-04T13:12:39;16.60;66.80
37910;DHT22;23741;49.446;8.754;2022-11-04T13:15:10;16.60;66.70
37910;DHT22;23741;49.446;8.754;2022-11-04T13:17:39;16.60;66.60
37910;DHT22;23741;49.446;8.754;2022-11-04T13:20:00;16.60;66.70
37910;DHT22;23741;49.446;8.754;2022-11-04T13:22:31;16.60;66.60
37910;DHT22;23741;49.446;8.754;2022-11-04T13:24:45;16.70;66.70
37910;DHT22;23741;49.446;8.754;2022-11-04T13:26:59;16.70;66.60
37910;DHT22;23741;49.446;8.754;2022-11-04T13:29:14;16.70;66.60
37910;DHT22;23741;49.446;8.754;2022-11-04T13:31:22;16.80;66.70
37910;DHT22;23741;49.446;8.754;2022-11-04T13:38:35;16.80;66.30
37910;DHT22;23741;49.446;8.754;2022-11-04T13:44:00;16.80;66.30
37910;DHT22;23741;49.446;8.754;2022-11-04T13:46:32;16.80;66.30
37910;DHT22;23741;49.446;8.754;2022-11-04T13:48:37;16.90;66.30
37910;DHT22;23741;49.446;8.754;2022-11-04T13:53:10;16.90;66.50
37910;DHT22;23741;49.446;8.754;2022-11-04T13:55:22;16.90;66.40
37910;DHT22;23741;49.446;8.754;2022-11-04T13:57:27;16.90;66.20
37910;DHT22;23741;49.446;8.754;2022-11-04T13:59:48;16.90;66.20
37910;DHT22;23741;49.446;8.754;2022-11-04T14:08:18;17.00;66.00
37910;DHT22;23741;49.446;8.754;2022-11-04T14:16:41;17.10;66.30
37910;DHT22;23741;49.446;8.754;2022-11-04T14:19:44;17.20;66.50
37910;DHT22;23741;49.446;8.754;2022-11-04T14:24:34;17.30;66.30
37910;DHT22;23741;49.446;8.754;2022-11-04T14:26:41;17.40;66.20
37910;DHT22;23741;49.446;8.754;2022-11-04T14:29:26;17.40;66.10
37910;DHT22;23741;49.446;8.754;2022-11-04T14:31:51;17.40;66.00
37910;DHT22;23741;49.446;8.754;2022-11-04T14:35:17;17.50;65.70
37910;DHT22;23741;49.446;8.754;2022-11-04T14:49:39;17.50;65.00
37910;DHT22;23741;49.446;8.754;2022-11-04T14:52:01;17.40;65.10
37910;DHT22;23741;49.446;8.754;2022-11-04T14:54:25;17.40;65.20
37910;DHT22;23741;49.446;8.754;2022-11-04T14:57:06;17.40;65.10
37910;DHT22;23741;49.446;8.754;2022-11-04T14:59:34;17.30;65.10
37910;DHT22;23741;49.446;8.754;2022-11-04T15:01:52;17.30;64.70
37910;DHT22;23741;49.446;8.754;2022-11-04T15:04:13;17.30;64.50
37910;DHT22;23741;49.446;8.754;2022-11-04T15:06:42;17.30;64.60
37910;DHT22;23741;49.446;8.754;2022-11-04T15:09:00;17.20;64.80
37910;DHT22;23741;49.446;8.754;2022-11-04T15:11:17;17.20;64.70
37910;DHT22;23741;49.446;8.754;2022-11-04T15:13:59;17.20;65.00
37910;DHT22;23741;49.446;8.754;2022-11-04T15:16:12;17.10;65.10
37910;DHT22;23741;49.446;8.754;2022-11-04T15:18:24;17.10;65.20
37910;DHT22;23741;49.446;8.754;2022-11-04T15:21:29;17.10;65.40
37910;DHT22;23741;49.446;8.754;2022-11-04T15:27:49;17.00;65.40
37910;DHT22;23741;49.446;8.754;2022-11-04T15:35:30;16.90;65.40
37910;DHT22;23741;49.446;8.754;2022-11-04T15:37:33;17.00;65.50
37910;DHT22;23741;49.446;8.754;2022-11-04T15:39:50;16.90;65.50
37910;DHT22;23741;49.446;8.754;2022-11-04T15:42:03;16.90;65.40
37910;DHT22;23741;49.446;8.754;2022-11-04T15:44:26;16.90;65.40
37910;DHT22;23741;49.446;8.754;2022-11-04T15:46:38;16.90;65.50
37910;DHT22;23741;49.446;8.754;2022-11-04T15:51:40;16.80;65.60
37910;DHT22;23741;49.446;8.754;2022-11-04T15:55:57;16.80;65.70
37910;DHT22;23741;49.446;8.754;2022-11-04T15:58:08;16.70;65.60
37910;DHT22;23741;49.446;8.754;2022-11-04T16:00:32;16.70;65.70
37910;DHT22;23741;49.446;8.754;2022-11-04T16:02:58;16.70;65.70
37910;DHT22;23741;49.446;8.754;2022-11-04T16:07:28;16.70;65.80
37910;DHT22;23741;49.446;8.754;2022-11-04T16:09:42;16.60;65.80
37910;DHT22;23741;49.446;8.754;2022-11-04T16:14:28;16.60;66.00
37910;DHT22;23741;49.446;8.754;2022-11-04T16:16:44;16.60;66.00
37910;DHT22;23741;49.446;8.754;2022-11-04T16:18:57;16.60;66.10
37910;DHT22;23741;49.446;8.754;2022-11-04T16:23:53;16.50;66.10
37910;DHT22;23741;49.446;8.754;2022-11-04T16:29:39;16.50;66.20
37910;DHT22;23741;49.446;8.754;2022-11-04T16:44:30;16.40;66.70
37910;DHT22;23741;49.446;8.754;2022-11-04T16:47:16;16.40;66.70
37910;DHT22;23741;49.446;8.754;2022-11-04T16:50:22;16.40;66.70
37910;DHT22;23741;49.446;8.754;2022-11-04T16:55:51;16.30;66.70
37910;DHT22;23741;49.446;8.754;2022-11-04T16:58:14;16.30;66.80
37910;DHT22;23741;49.446;8.754;2022-11-04T17:00:47;16.30;66.90
37910;DHT22;23741;49.446;8.754;2022-11-04T17:03:38;16.30;66.80
37910;DHT22;23741;49.446;8.754;2022-11-04T17:08:53;16.20;66.80
37910;DHT22;23741;49.446;8.754;2022-11-04T17:11:06;16.30;66.90
37910;DHT22;23741;49.446;8.754;2022-11-04T17:13:23;16.20;66.90
37910;DHT22;23741;49.446;8.754;2022-11-04T17:15:48;16.20;67.00
37910;DHT22;23741;49.446;8.754;2022-11-04T17:17:53;16.20;67.10
37910;DHT22;23741;49.446;8.754;2022-11-04T17:20:13;16.20;67.00
37910;DHT22;23741;49.446;8.754;2022-11-04T17:22:32;16.20;67.00
37910;DHT22;23741;49.446;8.754;2022-11-04T17:25:13;16.20;67.00
37910;DHT22;23741;49.446;8.754;2022-11-04T17:27:35;16.20;66.90
37910;DHT22;23741;49.446;8.754;2022-11-04T17:32:34;16.10;67.00
37910;DHT22;23741;49.446;8.754;2022-11-04T17:34:37;16.10;67.00
37910;DHT22;23741;49.446;8.754;2022-11-04T17:37:29;16.10;66.90
37910;DHT22;23741;49.446;8.754;2022-11-04T17:40:22;16.10;66.90
37910;DHT22;23741;49.446;8.754;2022-11-04T17:49:57;16.00;67.20
37910;DHT22;23741;49.446;8.754;2022-11-04T17:52:44;16.00;67.20
37910;DHT22;23741;49.446;8.754;2022-11-04T17:57:59;16.00;67.10
37910;DHT22;23741;49.446;8.754;2022-11-04T18:00:18;16.00;67.10
37910;DHT22;23741;49.446;8.754;2022-11-04T18:02:55;16.00;67.20
37910;DHT22;23741;49.446;8.754;2022-11-04T18:05:46;16.00;67.10
37910;DHT22;23741;49.446;8.754;2022-11-04T18:08:43;15.90;67.00
37910;DHT22;23741;49.446;8.754;2022-11-04T18:11:13;15.90;67.00
37910;DHT22;23741;49.446;8.754;2022-11-04T18:14:02;15.90;67.10
37910;DHT22;23741;49.446;8.754;2022-11-04T18:16:17;15.90;67.10
37910;DHT22;23741;49.446;8.754;2022-11-04T18:18:39;15.80;67.10
37910;DHT22;23741;49.446;8.754;2022-11-04T18:21:08;15.90;67.10
37910;DHT22;23741;49.446;8.754;2022-11-04T18:23:44;15.80;67.10
37910;DHT22;23741;49.446;8.754;2022-11-04T18:25:51;15.80;67.00
37910;DHT22;23741;49.446;8.754;2022-11-04T18:28:07;15.80;67.00
37910;DHT22;23741;49.446;8.754;2022-11-04T18:30:39;15.80;67.10
37910;DHT22;23741;49.446;8.754;2022-11-04T18:32:56;15.80;67.20
37910;DHT22;23741;49.446;8.754;2022-11-04T18:34:59;15.80;67.20
37910;DHT22;23741;49.446;8.754;2022-11-04T18:37:13;15.70;67.20
37910;DHT22;23741;49.446;8.754;2022-11-04T18:39:25;15.70;67.00
37910;DHT22;23741;49.446;8.754;2022-11-04T18:44:21;15.70;67.00
37910;DHT22;23741;49.446;8.754;2022-11-04T18:46:37;15.70;67.10
37910;DHT22;23741;49.446;8.754;2022-11-04T18:48:50;15.70;67.10
37910;DHT22;23741;49.446;8.754;2022-11-04T18:51:50;15.60;67.20
37910;DHT22;23741;49.446;8.754;2022-11-04T18:54:41;15.60;68.20
37910;DHT22;23741;49.446;8.754;2022-11-04T18:56:57;15.60;67.30
37910;DHT22;23741;49.446;8.754;2022-11-04T18:59:18;15.60;67.20
37910;DHT22;23741;49.446;8.754;2022-11-04T19:06:36;15.60;67.30
37910;DHT22;23741;49.446;8.754;2022-11-04T19:08:53;15.50;67.30
37910;DHT22;23741;49.446;8.754;2022-11-04T19:10:58;15.50;67.20
37910;DHT22;23741;49.446;8.754;2022-11-04T19:13:03;15.50;67.20
37910;DHT22;23741;49.446;8.754;2022-11-04T19:15:50;15.40;67.20
37910;DHT22;23741;49.446;8.754;2022-11-04T19:19:01;15.40;67.30
37910;DHT22;23741;49.446;8.754;2022-11-04T19:21:43;15.50;67.40
37910;DHT22;23741;49.446;8.754;2022-11-04T19:33:04;15.40;67.50
37910;DHT22;23741;49.446;8.754;2022-11-04T19:36:06;15.40;67.50
37910;DHT22;23741;49.446;8.754;2022-11-04T19:42:02;15.30;67.70
37910;DHT22;23741;49.446;8.754;2022-11-04T19:44:43;15.30;67.70
37910;DHT22;23741;49.446;8.754;2022-11-04T19:47:08;15.30;67.70
37910;DHT22;23741;49.446;8.754;2022-11-04T19:49:33;15.30;67.80
37910;DHT22;23741;49.446;8.754;2022-11-04T19:52:40;15.30;67.80
37910;DHT22;23741;49.446;8.754;2022-11-04T19:55:56;15.40;67.80
37910;DHT22;23741;49.446;8.754;2022-11-04T19:58:34;15.40;67.70
37910;DHT22;23741;49.446;8.754;2022-11-04T20:01:09;15.30;67.70
37910;DHT22;23741;49.446;8.754;2022-11-04T20:03:42;15.30;67.60
37910;DHT22;23741;49.446;8.754;2022-11-04T20:05:49;15.30;67.60
37910;DHT22;23741;49.446;8.754;2022-11-04T20:08:08;15.30;67.80
37910;DHT22;23741;49.446;8.754;2022-11-04T20:10:36;15.30;67.80
37910;DHT22;23741;49.446;8.754;2022-11-04T20:12:58;15.30;67.70
37910;DHT22;23741;49.446;8.754;2022-11-04T20:15:52;15.30;67.80
37910;DHT22;23741;49.446;8.754;2022-11-04T20:18:49;15.30;67.90
37910;DHT22;23741;49.446;8.754;2022-11-04T20:21:39;15.30;67.90
37910;DHT22;23741;49.446;8.754;2022-11-04T20:32:42;15.30;68.00
37910;DHT22;23741;49.446;8.754;2022-11-04T20:35:29;15.30;68.00
37910;DHT22;23741;49.446;8.754;2022-11-04T20:38:11;15.30;68.00
37910;DHT22;23741;49.446;8.754;2022-11-04T20:47:29;15.30;67.90
37910;DHT22;23741;49.446;8.754;2022-11-04T20:49:49;15.20;68.00
37910;DHT22;23741;49.446;8.754;2022-11-04T20:52:31;15.20;68.10
37910;DHT22;23741;49.446;8.754;2022-11-04T20:54:50;15.30;68.10
37910;DHT22;23741;49.446;8.754;2022-11-04T21:00:58;15.20;68.10
37910;DHT22;23741;49.446;8.754;2022-11-04T21:03:59;15.30;68.10
37910;DHT22;23741;49.446;8.754;2022-11-04T21:06:27;15.20;68.10
37910;DHT22;23741;49.446;8.754;2022-11-04T21:08:37;15.20;68.30
37910;DHT22;23741;49.446;8.754;2022-11-04T21:11:17;15.20;68.40
37910;DHT22;23741;49.446;8.754;2022-11-04T21:13:49;15.20;68.30
37910;DHT22;23741;49.446;8.754;2022-11-04T21:16:32;15.20;68.20
37910;DHT22;23741;49.446;8.754;2022-11-04T21:18:47;15.20;68.10
37910;DHT22;23741;49.446;8.754;2022-11-04T21:20:54;15.20;68.20
37910;DHT22;23741;49.446;8.754;2022-11-04T21:23:25;15.20;68.50
37910;DHT22;23741;49.446;8.754;2022-11-04T21:26:04;15.20;68.50
37910;DHT22;23741;49.446;8.754;2022-11-04T21:28:27;15.20;68.40
37910;DHT22;23741;49.446;8.754;2022-11-04T21:30:59;15.20;68.40
37910;DHT22;23741;49.446;8.754;2022-11-04T21:33:11;15.20;68.60
37910;DHT22;23741;49.446;8.754;2022-11-04T21:35:34;15.30;68.70
37910;DHT22;23741;49.446;8.754;2022-11-04T21:37:52;15.20;68.50
37910;DHT22;23741;49.446;8.754;2022-11-04T21:40:11;15.20;68.50
37910;DHT22;23741;49.446;8.754;2022-11-04T21:42:33;15.20;68.40
37910;DHT22;23741;49.446;8.754;2022-11-04T21:45:03;15.20;68.30
37910;DHT22;23741;49.446;8.754;2022-11-04T21:47:28;15.20;68.20
37910;DHT22;23741;49.446;8.754;2022-11-04T21:50:01;15.20;68.20
37910;DHT22;23741;49.446;8.754;2022-11-04T21:52:17;15.20;68.30
37910;DHT22;23741;49.446;8.754;2022-11-04T21:54:37;15.20;68.30
37910;DHT22;23741;49.446;8.754;2022-11-04T21:57:05;15.20;68.20
37910;DHT22;23741;49.446;8.754;2022-11-04T21:59:31;15.20;68.20
37910;DHT22;23741;49.446;8.754;2022-11-04T22:07:25;15.20;68.40
37910;DHT22;23741;49.446;8.754;2022-11-04T22:10:39;15.20;68.50
37910;DHT22;23741;49.446;8.754;2022-11-04T22:16:27;15.20;68.50
37910;DHT22;23741;49.446;8.754;2022-11-04T22:18:41;15.20;68.50
37910;DHT22;23741;49.446;8.754;2022-11-04T22:24:01;15.20;68.50
37910;DHT22;23741;49.446;8.754;2022-11-04T22:26:19;15.20;68.60
37910;DHT22;23741;49.446;8.754;2022-11-04T22:28:33;15.20;68.50
37910;DHT22;23741;49.446;8.754;2022-11-04T22:31:19;15.10;68.40
37910;DHT22;23741;49.446;8.754;2022-11-04T22:33:40;15.20;68.50
37910;DHT22;23741;49.446;8.754;2022-11-04T22:35:59;15.10;68.50
37910;DHT22;23741;49.446;8.754;2022-11-04T22:38:33;15.10;68.70
37910;DHT22;23741;49.446;8.754;2022-11-04T22:41:02;15.10;68.70
37910;DHT22;23741;49.446;8.754;2022-11-04T22:48:31;15.10;68.60
37910;DHT22;23741;49.446;8.754;2022-11-04T22:50:57;15.10;68.70
37910;DHT22;23741;49.446;8.754;2022-11-04T22:53:13;15.10;68.80
37910;DHT22;23741;49.446;8.754;2022-11-04T22:55:39;15.10;68.70
37910;DHT22;23741;49.446;8.754;2022-11-04T22:58:05;15.10;68.60
37910;DHT22;23741;49.446;8.754;2022-11-04T23:00:52;15.10;68.60
37910;DHT22;23741;49.446;8.754;2022-11-04T23:02:59;15.10;68.70
37910;DHT22;23741;49.446;8.754;2022-11-04T23:05:29;15.10;68.70
37910;DHT22;23741;49.446;8.754;2022-11-04T23:07:52;15.10;68.70
37910;DHT22;23741;49.446;8.754;2022-11-04T23:10:05;15.20;68.90
37910;DHT22;23741;49.446;8.754;2022-11-04T23:12:59;15.10;68.90
37910;DHT22;23741;49.446;8.754;2022-11-04T23:16:08;15.10;68.70
37910;DHT22;23741;49.446;8.754;2022-11-04T23:18:50;15.20;68.80
37910;DHT22;23741;49.446;8.754;2022-11-04T23:21:57;15.10;68.70
37910;DHT22;23741;49.446;8.754;2022-11-04T23:28:03;15.10;68.60
37910;DHT22;23741;49.446;8.754;2022-11-04T23:31:09;15.10;68.70
37910;DHT22;23741;49.446;8.754;2022-11-04T23:34:10;15.10;68.70
37910;DHT22;23741;49.446;8.754;2022-11-04T23:36:58;15.10;68.70
37910;DHT22;23741;49.446;8.754;2022-11-04T23:39:17;15.10;68.70
37910;DHT22;23741;49.446;8.754;2022-11-04T23:41:53;15.10;68.80
37910;DHT22;23741;49.446;8.754;2022-11-04T23:44:27;15.10;68.70
37910;DHT22;23741;49.446;8.754;2022-11-04T23:47:03;15.10;68.70
37910;DHT22;23741;49.446;8.754;2022-11-04T23:49:37;15.10;68.80
37910;DHT22;23741;49.446;8.754;2022-11-04T23:52:07;15.10;68.80
37910;DHT22;23741;49.446;8.754;2022-11-04T23:54:38;15.10;68.80
37910;DHT22;23741;49.446;8.754;2022-11-04T23:57:12;15.10;68.90
37910;DHT22;23741;49.446;8.754;2022-11-04T23:59:35;15.00;68.80
